Time;durP1;ratioP1;P1;durP2;ratioP2;P2;SDS_P1;SDS_P2;PMS_P1;PMS_P2;Temp;Humidity;BMP_temperature;BMP_pressure;BME280_temperature;BME280_humidity;BME280_pressure;Samples;Min_cycle;Max_cycle;Signal;HPM_P1;HPM_P2
2022/03/24 00:01:02;;;;;;;19.87;11.27;;;2.70;99.90;;;;;;5047943;28;20378;-78
2022/03/24 00:03:28;;;;;;;16.27;10.77;;;2.60;99.90;;;;;;5051472;28;20057;-78
2022/03/24 00:05:54;;;;;;;18.97;10.20;;;2.60;99.90;;;;;;5052462;28;20053;-77
2022/03/24 00:08:19;;;;;;;20.13;10.23;;;2.60;99.90;;;;;;5052459;28;20021;-77
2022/03/24 00:10:45;;;;;;;20.40;11.47;;;2.70;99.90;;;;;;5052305;28;20111;-77
2022/03/24 00:13:11;;;;;;;23.63;11.33;;;2.60;99.90;;;;;;5052835;28;20029;-77
2022/03/24 00:15:36;;;;;;;21.33;11.10;;;2.70;99.90;;;;;;5052362;28;20032;-77
2022/03/24 00:18:02;;;;;;;21.07;11.43;;;2.60;99.90;;;;;;5052612;28;20032;-77
2022/03/24 00:20:28;;;;;;;18.77;10.40;;;2.60;99.90;;;;;;5051211;28;20394;-77
2022/03/24 00:22:54;;;;;;;18.23;11.30;;;2.60;99.90;;;;;;5050790;28;20037;-77
2022/03/24 00:25:19;;;;;;;24.80;11.53;;;2.50;99.90;;;;;;5052406;28;20086;-77
2022/03/24 00:27:45;;;;;;;21.27;10.33;;;2.50;99.90;;;;;;5052149;28;20021;-77
2022/03/24 00:30:12;;;;;;;19.73;10.60;;;2.50;99.90;;;;;;5052088;28;20061;-77
2022/03/24 00:32:38;;;;;;;20.97;11.10;;;2.50;99.90;;;;;;5052312;28;20079;-77
2022/03/24 00:35:04;;;;;;;19.33;11.03;;;2.50;99.90;;;;;;5050703;28;20025;-76
2022/03/24 00:37:31;;;;;;;21.80;11.43;;;2.50;99.90;;;;;;5051994;28;20025;-77
2022/03/24 00:39:56;;;;;;;17.93;10.53;;;2.50;99.90;;;;;;5050510;28;20021;-77
2022/03/24 00:42:22;;;;;;;20.77;11.07;;;2.40;99.90;;;;;;5051954;28;20025;-77
2022/03/24 00:44:47;;;;;;;17.27;10.53;;;2.40;99.90;;;;;;5052013;28;20013;-77
2022/03/24 00:47:16;;;;;;;18.43;10.17;;;2.40;99.90;;;;;;5051889;28;20124;-77
2022/03/24 00:49:42;;;;;;;24.73;11.30;;;2.30;99.90;;;;;;5051892;28;20048;-77
2022/03/24 00:52:11;;;;;;;20.00;10.77;;;2.30;99.90;;;;;;5050778;28;20052;-77
2022/03/24 00:54:36;;;;;;;18.07;10.33;;;2.20;99.90;;;;;;5051043;28;20091;-77
2022/03/24 00:57:02;;;;;;;17.90;10.53;;;2.20;99.90;;;;;;5050312;28;20029;-78
2022/03/24 00:59:28;;;;;;;18.73;10.63;;;2.10;99.90;;;;;;5044006;28;20025;-78
2022/03/24 01:01:55;;;;;;;19.53;10.07;;;2.10;99.90;;;;;;5052486;28;20032;-83
2022/03/24 01:04:21;;;;;;;18.73;10.67;;;2.10;99.90;;;;;;5052247;28;20031;-83
2022/03/24 01:06:46;;;;;;;16.83;10.73;;;2.10;99.90;;;;;;5051613;28;20025;-83
2022/03/24 01:09:12;;;;;;;19.20;10.80;;;2.10;99.90;;;;;;5051231;28;20056;-83
2022/03/24 01:11:37;;;;;;;17.47;10.23;;;2.10;99.90;;;;;;5050621;28;20118;-84
2022/03/24 01:14:05;;;;;;;17.60;11.07;;;2.10;99.90;;;;;;5051354;28;20033;-84
2022/03/24 01:16:31;;;;;;;19.63;10.80;;;2.10;99.90;;;;;;5051373;28;20025;-84
2022/03/24 01:18:57;;;;;;;18.33;10.57;;;2.10;99.90;;;;;;5052748;28;20029;-83
2022/03/24 01:21:22;;;;;;;18.03;10.60;;;2.10;99.90;;;;;;5051875;28;20035;-84
2022/03/24 01:23:48;;;;;;;19.07;11.70;;;2.00;99.90;;;;;;5053652;28;20054;-84
2022/03/24 01:26:15;;;;;;;17.97;10.70;;;2.00;99.90;;;;;;5053268;28;20091;-83
2022/03/24 01:28:41;;;;;;;18.80;11.23;;;2.00;99.90;;;;;;5069302;28;20754;-83
2022/03/24 01:31:11;;;;;;;18.60;10.07;;;2.00;99.90;;;;;;5053754;28;20060;-83
2022/03/24 01:33:40;;;;;;;17.87;9.93;;;2.00;99.90;;;;;;5057882;28;20021;-84
2022/03/24 01:36:08;;;;;;;18.50;11.07;;;2.00;99.90;;;;;;5057933;28;20103;-84
2022/03/24 01:38:35;;;;;;;19.87;10.73;;;2.00;99.90;;;;;;5058450;28;20040;-84
2022/03/24 01:41:00;;;;;;;17.43;11.30;;;1.90;99.90;;;;;;5057337;28;20029;-83
2022/03/24 01:43:26;;;;;;;18.07;10.53;;;1.90;99.90;;;;;;5058171;28;20039;-83
2022/03/24 01:45:53;;;;;;;20.73;11.40;;;1.90;99.90;;;;;;5057578;28;20114;-83
2022/03/24 01:48:19;;;;;;;17.00;10.63;;;1.90;99.90;;;;;;5059200;28;20028;-83
2022/03/24 01:50:45;;;;;;;21.73;10.93;;;1.90;99.90;;;;;;5058615;28;20020;-83
2022/03/24 01:53:12;;;;;;;16.73;10.30;;;1.80;99.90;;;;;;5056943;28;20462;-83
2022/03/24 01:55:39;;;;;;;22.17;10.53;;;1.80;99.90;;;;;;5058083;28;20049;-83
2022/03/24 01:58:06;;;;;;;19.73;10.43;;;1.80;99.90;;;;;;5049884;28;20018;-83
2022/03/24 02:00:32;;;;;;;16.63;10.80;;;1.80;99.90;;;;;;5048957;28;20483;-83
2022/03/24 02:03:01;;;;;;;18.03;10.90;;;1.70;99.90;;;;;;5055511;28;20075;-82
2022/03/24 02:05:32;;;;;;;19.73;11.17;;;1.70;99.90;;;;;;5055588;28;20108;-82
2022/03/24 02:08:02;;;;;;;18.00;10.70;;;1.70;99.90;;;;;;5055648;28;20795;-83
2022/03/24 02:10:28;;;;;;;18.80;11.03;;;1.60;99.90;;;;;;5055286;28;20031;-83
2022/03/24 02:12:56;;;;;;;18.70;11.00;;;1.60;99.90;;;;;;5054334;28;20047;-83
2022/03/24 02:15:23;;;;;;;20.73;10.67;;;1.50;99.90;;;;;;5053907;28;20437;-83
2022/03/24 02:17:48;;;;;;;17.37;10.47;;;1.50;99.90;;;;;;5055878;28;20017;-83
2022/03/24 02:20:14;;;;;;;17.00;10.43;;;1.40;99.90;;;;;;5055776;28;20035;-82
2022/03/24 02:22:40;;;;;;;19.70;10.60;;;1.40;99.90;;;;;;5055239;28;20108;-82
2022/03/24 02:25:07;;;;;;;17.03;10.87;;;1.40;99.90;;;;;;5054288;28;20060;-83
2022/03/24 02:27:33;;;;;;;17.03;10.77;;;1.40;99.90;;;;;;5055432;28;20029;-83
2022/03/24 02:29:58;;;;;;;19.37;10.87;;;1.30;99.90;;;;;;5055173;28;20070;-83
2022/03/24 02:32:24;;;;;;;17.13;10.10;;;1.30;99.90;;;;;;5054604;28;20017;-83
2022/03/24 02:34:51;;;;;;;15.77;10.37;;;1.30;99.90;;;;;;5053947;28;20033;-83
2022/03/24 02:37:25;;;;;;;22.80;10.97;;;1.30;99.90;;;;;;5056335;28;20027;-83
2022/03/24 02:39:53;;;;;;;20.43;11.03;;;1.30;99.90;;;;;;5055424;28;20021;-83
2022/03/24 02:42:20;;;;;;;19.40;10.33;;;1.30;99.90;;;;;;5055434;28;20474;-83
2022/03/24 02:44:49;;;;;;;20.17;11.00;;;1.30;99.90;;;;;;5054714;28;20029;-83
2022/03/24 02:47:16;;;;;;;25.23;11.73;;;1.30;99.90;;;;;;5055543;28;20037;-83
2022/03/24 02:49:42;;;;;;;18.07;11.13;;;1.30;99.90;;;;;;5054510;28;20025;-83
2022/03/24 02:52:09;;;;;;;16.23;9.97;;;1.30;99.90;;;;;;5056060;28;20467;-83
2022/03/24 02:54:35;;;;;;;18.57;10.57;;;1.30;99.90;;;;;;5055848;28;20023;-83
2022/03/24 02:57:01;;;;;;;16.90;10.03;;;1.40;99.90;;;;;;5054870;28;20028;-83
2022/03/24 02:59:27;;;;;;;21.47;10.37;;;1.30;99.90;;;;;;5043455;28;20034;-83
2022/03/24 03:01:54;;;;;;;23.73;10.33;;;1.30;99.90;;;;;;5034961;28;20795;-83
2022/03/24 03:04:20;;;;;;;19.43;10.20;;;1.20;99.90;;;;;;5035046;28;20029;-83
2022/03/24 03:06:45;;;;;;;19.30;11.10;;;1.20;99.90;;;;;;5034657;28;20035;-83
2022/03/24 03:09:16;;;;;;;18.57;11.13;;;1.20;99.90;;;;;;5034887;28;20100;-83
2022/03/24 03:11:46;;;;;;;20.47;11.07;;;1.20;99.90;;;;;;5047446;28;20036;-83
2022/03/24 03:14:13;;;;;;;20.03;10.60;;;1.20;99.90;;;;;;5054713;28;20032;-82
2022/03/24 03:16:40;;;;;;;17.10;10.73;;;1.20;99.90;;;;;;5052812;28;20334;-83
2022/03/24 03:19:08;;;;;;;18.97;11.53;;;1.20;99.90;;;;;;5053819;28;20028;-82
2022/03/24 03:21:35;;;;;;;24.03;11.77;;;1.20;99.90;;;;;;5053719;28;20033;-83
2022/03/24 03:24:01;;;;;;;23.83;11.57;;;1.20;99.90;;;;;;5053724;28;20082;-82
2022/03/24 03:26:27;;;;;;;21.40;11.83;;;1.30;99.90;;;;;;5051031;28;20119;-82
2022/03/24 03:28:53;;;;;;;20.23;10.87;;;1.30;99.90;;;;;;5051850;28;20108;-83
2022/03/24 03:31:21;;;;;;;17.93;11.10;;;1.20;99.90;;;;;;5050119;28;20033;-82
2022/03/24 03:33:47;;;;;;;16.10;10.77;;;1.30;99.90;;;;;;5052541;28;20025;-83
2022/03/24 03:36:13;;;;;;;18.33;11.23;;;1.20;99.90;;;;;;5052449;28;20131;-82
2022/03/24 03:38:39;;;;;;;19.80;11.07;;;1.30;99.90;;;;;;5051985;28;20466;-82
2022/03/24 03:41:06;;;;;;;15.07;10.27;;;1.20;99.90;;;;;;5052731;28;20017;-82
2022/03/24 03:43:32;;;;;;;20.13;11.13;;;1.20;99.90;;;;;;5053289;28;20102;-82
2022/03/24 03:45:58;;;;;;;18.50;11.50;;;1.20;99.90;;;;;;5052396;28;20020;-82
2022/03/24 03:48:25;;;;;;;17.17;10.67;;;1.20;99.90;;;;;;5051791;28;20033;-82
2022/03/24 03:50:50;;;;;;;19.00;10.97;;;1.20;99.90;;;;;;5050783;28;20033;-82
2022/03/24 03:53:16;;;;;;;18.33;11.40;;;1.20;99.90;;;;;;5053040;28;20420;-82
2022/03/24 03:55:42;;;;;;;21.00;11.93;;;1.10;99.90;;;;;;5051580;28;20029;-83
2022/03/24 03:58:08;;;;;;;22.13;11.10;;;1.20;99.90;;;;;;5052129;28;20095;-83
2022/03/24 04:00:53;;;;;;;19.17;11.90;;;1.20;99.90;;;;;;5041640;28;20036;-82
2022/03/24 04:03:39;;;;;;;22.07;11.33;;;1.20;99.90;;;;;;5044321;28;20027;-82
2022/03/24 04:06:09;;;;;;;21.20;11.93;;;1.30;99.90;;;;;;5053749;28;20025;-82
2022/03/24 04:08:36;;;;;;;18.77;12.10;;;1.30;99.90;;;;;;5052437;28;20029;-83
2022/03/24 04:11:01;;;;;;;19.30;11.97;;;1.20;99.90;;;;;;5053034;28;20029;-83
2022/03/24 04:13:28;;;;;;;21.93;12.57;;;1.30;99.90;;;;;;5053275;28;20017;-83
2022/03/24 04:15:54;;;;;;;24.37;12.57;;;1.30;99.90;;;;;;5053064;28;20017;-83
2022/03/24 04:18:22;;;;;;;22.07;11.40;;;1.30;99.90;;;;;;5053306;28;20032;-83
2022/03/24 04:20:48;;;;;;;18.43;12.13;;;1.30;99.90;;;;;;5053221;28;20017;-83
2022/03/24 04:23:14;;;;;;;18.60;11.90;;;1.40;99.90;;;;;;5053045;28;20027;-83
2022/03/24 04:25:39;;;;;;;19.23;12.53;;;1.40;99.90;;;;;;5053275;28;20017;-83
2022/03/24 04:28:06;;;;;;;18.37;12.03;;;1.40;99.90;;;;;;5051221;28;20025;-83
2022/03/24 04:30:33;;;;;;;23.60;12.03;;;1.40;99.90;;;;;;5052530;28;20028;-83
2022/03/24 04:32:59;;;;;;;17.43;11.43;;;1.40;99.90;;;;;;5052625;28;20036;-83
2022/03/24 04:35:26;;;;;;;18.27;11.33;;;1.40;99.90;;;;;;5053702;28;20028;-83
2022/03/24 04:37:52;;;;;;;19.47;11.77;;;1.40;99.90;;;;;;5053601;28;20013;-83
2022/03/24 04:40:18;;;;;;;21.23;11.60;;;1.30;99.90;;;;;;5054015;28;20048;-83
2022/03/24 04:42:46;;;;;;;21.50;12.00;;;1.30;99.90;;;;;;5054049;28;20079;-83
2022/03/24 04:45:13;;;;;;;22.53;11.57;;;1.20;99.90;;;;;;5053237;28;20025;-83
2022/03/24 04:47:39;;;;;;;24.27;12.27;;;1.20;99.90;;;;;;5057026;28;20048;-83
2022/03/24 04:50:05;;;;;;;25.07;13.40;;;1.20;99.90;;;;;;5056768;28;20052;-83
2022/03/24 04:52:31;;;;;;;23.67;12.53;;;1.10;99.90;;;;;;5058613;28;20832;-84
2022/03/24 04:54:59;;;;;;;22.00;12.70;;;1.00;99.90;;;;;;5058698;28;20028;-83
2022/03/24 04:57:25;;;;;;;22.53;13.77;;;1.00;99.90;;;;;;5056963;28;20055;-83
2022/03/24 04:59:50;;;;;;;24.93;13.67;;;1.00;99.90;;;;;;5050012;28;20045;-84
2022/03/24 05:02:17;;;;;;;23.10;13.50;;;0.90;99.90;;;;;;5077247;28;20051;-84
2022/03/24 05:04:43;;;;;;;24.07;13.47;;;0.90;99.90;;;;;;5064643;28;20032;-84
2022/03/24 05:07:11;;;;;;;28.83;15.03;;;0.90;99.90;;;;;;5065443;28;20025;-82
2022/03/24 05:09:37;;;;;;;23.93;13.73;;;0.80;99.90;;;;;;5059626;28;20036;-83
2022/03/24 05:12:04;;;;;;;21.57;13.47;;;0.80;99.90;;;;;;5064316;28;20025;-83
2022/03/24 05:14:31;;;;;;;23.50;12.03;;;0.70;99.90;;;;;;5066177;28;20024;-83
2022/03/24 05:16:57;;;;;;;26.07;12.63;;;0.70;99.90;;;;;;5064232;28;20450;-82
2022/03/24 05:19:22;;;;;;;23.50;12.07;;;0.60;99.90;;;;;;5073154;28;20039;-79
2022/03/24 05:21:48;;;;;;;24.20;11.90;;;0.60;99.90;;;;;;5063075;28;20033;-83
2022/03/24 05:24:14;;;;;;;19.13;11.00;;;0.50;99.90;;;;;;5060626;28;20147;-83
2022/03/24 05:26:40;;;;;;;20.83;11.30;;;0.50;99.90;;;;;;5056126;28;20466;-79
2022/03/24 05:29:06;;;;;;;23.03;11.10;;;0.50;99.90;;;;;;5056210;28;20017;-79
2022/03/24 05:31:31;;;;;;;29.77;12.90;;;0.50;99.90;;;;;;5061077;28;20023;-79
2022/03/24 05:33:57;;;;;;;23.70;11.87;;;0.60;99.90;;;;;;5059064;28;20029;-79
2022/03/24 05:36:22;;;;;;;22.40;12.20;;;0.50;99.90;;;;;;5057326;28;20020;-79
2022/03/24 05:38:48;;;;;;;24.37;11.77;;;0.60;99.90;;;;;;5061860;28;20013;-79
2022/03/24 05:41:14;;;;;;;30.90;11.60;;;0.60;99.90;;;;;;5055821;28;20082;-79
2022/03/24 05:44:02;;;;;;;28.07;11.87;;;0.70;99.90;;;;;;5055771;28;20020;-79
2022/03/24 05:46:26;;;;;;;25.47;11.83;;;0.70;99.90;;;;;;5055314;28;20462;-79
2022/03/24 05:48:51;;;;;;;26.83;12.03;;;0.80;99.90;;;;;;5055537;28;20017;-79
2022/03/24 05:51:17;;;;;;;21.43;12.00;;;0.80;99.90;;;;;;5055521;28;20095;-79
2022/03/24 05:53:43;;;;;;;25.10;12.07;;;0.90;99.90;;;;;;5055353;28;20461;-79
2022/03/24 05:56:08;;;;;;;26.67;12.57;;;1.00;99.90;;;;;;5062701;28;20086;-78
2022/03/24 05:58:34;;;;;;;24.40;13.13;;;1.10;99.90;;;;;;5055625;28;20017;-78
2022/03/24 06:01:00;;;;;;;25.37;11.93;;;1.10;99.90;;;;;;5054689;28;20343;-78
2022/03/24 06:03:29;;;;;;;23.13;11.17;;;1.20;99.90;;;;;;5063476;28;20033;-77
2022/03/24 06:05:56;;;;;;;31.27;12.23;;;1.30;99.90;;;;;;5062404;28;20042;-83
2022/03/24 06:08:22;;;;;;;18.63;11.50;;;1.40;99.90;;;;;;5070115;28;20112;-83
2022/03/24 06:10:48;;;;;;;24.17;12.87;;;1.50;99.90;;;;;;5075444;28;20135;-77
2022/03/24 06:13:14;;;;;;;19.43;11.97;;;1.60;99.90;;;;;;5062299;28;20024;-78
2022/03/24 06:15:40;;;;;;;22.23;12.13;;;1.70;99.90;;;;;;5054903;28;20024;-77
2022/03/24 06:18:05;;;;;;;19.83;10.50;;;1.80;99.90;;;;;;5058013;28;20028;-82
2022/03/24 06:20:31;;;;;;;20.87;11.50;;;1.90;99.90;;;;;;5075160;28;20090;-79
2022/03/24 06:22:56;;;;;;;21.40;11.67;;;2.10;99.90;;;;;;5049259;28;20090;-79
2022/03/24 06:25:22;;;;;;;17.37;11.13;;;2.20;99.90;;;;;;5063508;28;20579;-79
2022/03/24 06:27:50;;;;;;;20.07;11.20;;;2.30;99.90;;;;;;5056159;28;20029;-79
2022/03/24 06:30:16;;;;;;;16.77;10.67;;;2.40;99.90;;;;;;5057828;28;20092;-78
2022/03/24 06:32:42;;;;;;;16.00;10.70;;;2.50;99.90;;;;;;5063345;28;20056;-77
2022/03/24 06:35:08;;;;;;;17.13;10.87;;;2.70;99.90;;;;;;5058924;28;20052;-78
2022/03/24 06:37:40;;;;;;;17.33;10.87;;;2.80;99.90;;;;;;5065867;28;20452;-78
2022/03/24 06:40:15;;;;;;;16.40;10.13;;;2.90;99.90;;;;;;5052075;28;20029;-78
2022/03/24 06:42:40;;;;;;;18.38;11.18;;;3.00;99.90;;;;;;5053389;28;20465;-78
2022/03/24 06:45:08;;;;;;;18.80;10.83;;;3.10;99.90;;;;;;5052491;28;20104;-78
2022/03/24 06:47:34;;;;;;;19.83;10.93;;;3.20;99.90;;;;;;5052335;28;20102;-78
2022/03/24 06:50:00;;;;;;;18.60;11.87;;;3.30;99.90;;;;;;5052197;28;20036;-78
2022/03/24 06:52:25;;;;;;;20.53;10.77;;;3.40;99.90;;;;;;5053408;28;20029;-77
2022/03/24 06:54:51;;;;;;;17.97;11.07;;;3.50;99.90;;;;;;5053338;28;20116;-77
2022/03/24 06:57:16;;;;;;;19.50;9.83;;;3.70;99.90;;;;;;5064111;28;20047;-77
2022/03/24 06:59:43;;;;;;;16.77;10.23;;;3.80;99.90;;;;;;5052789;28;20036;-77
2022/03/24 07:02:09;;;;;;;19.13;10.13;;;4.00;99.90;;;;;;5054939;28;20029;-76
2022/03/24 07:04:35;;;;;;;21.37;9.90;;;4.10;99.90;;;;;;5057903;28;20040;-74
2022/03/24 07:07:01;;;;;;;17.20;9.80;;;4.30;99.90;;;;;;5054657;28;20056;-75
2022/03/24 07:09:27;;;;;;;18.83;10.33;;;4.40;99.90;;;;;;5051640;28;20055;-76
2022/03/24 07:11:54;;;;;;;18.23;10.67;;;4.50;99.90;;;;;;5051270;28;20037;-79
2022/03/24 07:14:21;;;;;;;18.23;11.13;;;4.70;99.90;;;;;;5050940;28;20393;-80
2022/03/24 07:16:47;;;;;;;20.03;9.93;;;4.90;99.90;;;;;;5053104;28;20025;-80
2022/03/24 07:19:12;;;;;;;16.87;10.13;;;5.00;99.90;;;;;;5051589;28;20037;-81
2022/03/24 07:21:38;;;;;;;18.57;10.87;;;5.20;99.90;;;;;;5054414;28;20523;-81
2022/03/24 07:24:06;;;;;;;19.40;10.50;;;5.30;99.90;;;;;;5062371;28;20695;-80
2022/03/24 07:26:32;;;;;;;17.73;10.63;;;5.50;99.90;;;;;;5071838;28;20028;-80
2022/03/24 07:28:58;;;;;;;21.43;10.77;;;5.60;99.90;;;;;;5067417;28;20113;-78
2022/03/24 07:31:24;;;;;;;16.40;9.43;;;5.80;99.90;;;;;;5055624;28;20115;-71
2022/03/24 07:33:53;;;;;;;18.50;10.00;;;6.00;99.90;;;;;;5060557;28;20125;-71
2022/03/24 07:36:22;;;;;;;18.20;10.67;;;6.20;99.90;;;;;;5062046;28;20033;-70
2022/03/24 07:38:51;;;;;;;18.47;11.00;;;6.30;99.90;;;;;;5069514;28;20469;-70
2022/03/24 07:41:17;;;;;;;17.40;10.17;;;6.50;99.90;;;;;;5056893;28;20113;-74
2022/03/24 07:43:43;;;;;;;19.23;10.37;;;6.70;99.90;;;;;;5051688;28;20104;-77
2022/03/24 07:46:08;;;;;;;18.43;10.50;;;6.80;99.90;;;;;;5052576;28;20127;-77
2022/03/24 07:48:34;;;;;;;21.00;11.70;;;7.00;99.90;;;;;;5049312;28;20036;-77
2022/03/24 07:51:00;;;;;;;20.43;11.47;;;7.20;99.90;;;;;;5047671;28;20462;-77
2022/03/24 07:53:28;;;;;;;17.37;10.90;;;7.40;99.90;;;;;;5049182;28;20029;-77
2022/03/24 07:55:57;;;;;;;16.33;11.20;;;7.50;99.90;;;;;;5048218;28;20037;-76
2022/03/24 07:58:23;;;;;;;16.70;11.47;;;7.70;99.90;;;;;;5046527;28;20177;-77
2022/03/24 08:00:49;;;;;;;19.30;11.70;;;7.90;99.90;;;;;;5050494;28;20394;-77
2022/03/24 08:03:19;;;;;;;18.57;11.37;;;8.10;99.90;;;;;;5050894;28;20025;-77
2022/03/24 08:05:46;;;;;;;17.00;11.63;;;8.30;99.90;;;;;;5052075;28;20033;-78
2022/03/24 08:08:11;;;;;;;22.70;11.13;;;8.50;99.90;;;;;;5052121;28;20029;-76
2022/03/24 08:10:38;;;;;;;18.70;12.33;;;8.60;99.90;;;;;;5050524;28;20036;-76
2022/03/24 08:13:04;;;;;;;21.63;12.20;;;8.80;99.90;;;;;;5051983;28;20142;-77
2022/03/24 08:15:30;;;;;;;23.40;12.30;;;8.90;99.90;;;;;;5051950;28;20748;-77
2022/03/24 08:17:56;;;;;;;18.63;11.37;;;9.10;99.90;;;;;;5052067;28;20564;-77
2022/03/24 08:20:23;;;;;;;18.60;11.73;;;9.20;99.90;;;;;;5051813;28;20029;-76
2022/03/24 08:22:49;;;;;;;20.63;11.53;;;9.30;99.90;;;;;;5051482;28;20044;-76
2022/03/24 08:25:14;;;;;;;19.50;11.90;;;9.40;99.90;;;;;;5047638;28;20793;-78
2022/03/24 08:27:40;;;;;;;18.93;11.00;;;9.60;99.90;;;;;;5047296;28;20090;-78
2022/03/24 08:30:07;;;;;;;18.10;10.80;;;9.80;99.90;;;;;;5050639;28;20418;-81
2022/03/24 08:32:33;;;;;;;21.93;11.00;;;9.90;99.90;;;;;;5059195;28;20456;-77
2022/03/24 08:34:59;;;;;;;21.53;11.20;;;10.00;99.90;;;;;;5051915;28;20063;-77
2022/03/24 08:37:24;;;;;;;22.97;11.57;;;10.20;99.90;;;;;;5051060;28;20021;-78
2022/03/24 08:39:50;;;;;;;20.37;11.27;;;10.40;99.90;;;;;;5050082;28;20025;-75
2022/03/24 08:42:15;;;;;;;20.73;11.83;;;10.50;99.90;;;;;;5053299;28;20033;-78
2022/03/24 08:44:41;;;;;;;20.93;11.30;;;10.60;99.90;;;;;;5054187;28;20017;-78
2022/03/24 08:47:07;;;;;;;21.20;11.53;;;10.90;99.90;;;;;;5052579;28;20049;-78
2022/03/24 08:49:33;;;;;;;19.33;12.07;;;11.30;99.90;;;;;;5055497;28;20041;-78
2022/03/24 08:51:59;;;;;;;18.10;11.10;;;11.40;99.90;;;;;;5053760;28;20040;-76
2022/03/24 08:54:25;;;;;;;20.57;11.17;;;11.50;99.90;;;;;;5050666;28;20037;-76
2022/03/24 08:56:50;;;;;;;20.57;11.03;;;11.60;99.90;;;;;;5053550;28;20029;-78
2022/03/24 08:59:16;;;;;;;21.38;11.40;;;11.80;99.90;;;;;;5054393;28;20029;-79
2022/03/24 09:01:43;;;;;;;18.38;12.38;;;12.00;99.90;;;;;;5051774;28;20040;-77
2022/03/24 09:04:10;;;;;;;17.77;11.85;;;12.20;99.90;;;;;;5052590;28;20032;-77
2022/03/24 09:06:36;;;;;;;17.77;11.18;;;12.50;99.90;;;;;;5056524;28;20107;-76
2022/03/24 09:09:02;;;;;;;19.75;12.55;;;12.70;99.90;;;;;;5056607;28;20036;-78
2022/03/24 09:11:33;;;;;;;18.08;12.40;;;12.90;99.90;;;;;;5056075;28;20044;-81
2022/03/24 09:14:05;;;;;;;16.95;11.25;;;13.90;98.20;;;;;;5050064;28;20440;-81
2022/03/24 09:16:32;;;;;;;24.67;12.45;;;14.00;96.00;;;;;;5046442;28;20167;-78
2022/03/24 09:18:58;;;;;;;17.60;12.32;;;14.40;94.30;;;;;;5054786;28;20053;-81
2022/03/24 09:21:27;;;;;;;16.00;11.90;;;14.70;91.90;;;;;;5052702;28;20393;-78
2022/03/24 09:23:52;;;;;;;18.17;12.30;;;14.70;90.50;;;;;;5050716;28;20041;-79
2022/03/24 09:26:19;;;;;;;21.60;12.52;;;14.70;90.30;;;;;;5053438;28;20088;-79
2022/03/24 09:28:46;;;;;;;19.38;12.13;;;14.70;88.60;;;;;;5056158;28;20362;-78
2022/03/24 09:31:12;;;;;;;17.33;10.77;;;15.20;87.40;;;;;;5070782;28;20116;-79
2022/03/24 09:33:38;;;;;;;17.95;11.25;;;15.70;81.90;;;;;;5053642;28;20485;-80
2022/03/24 09:36:04;;;;;;;16.25;11.70;;;15.80;77.20;;;;;;5052777;28;20029;-78
2022/03/24 09:38:30;;;;;;;18.13;11.63;;;15.70;76.80;;;;;;5054233;28;20060;-79
2022/03/24 09:40:56;;;;;;;17.90;11.73;;;15.70;78.10;;;;;;5054375;28;20111;-78
2022/03/24 09:43:22;;;;;;;21.45;11.35;;;15.70;76.80;;;;;;5056020;28;20524;-78
2022/03/24 09:45:52;;;;;;;15.75;10.95;;;16.10;74.60;;;;;;5055208;28;20102;-79
2022/03/24 09:48:19;;;;;;;17.02;11.13;;;16.90;69.00;;;;;;5050461;28;20109;-78
2022/03/24 09:50:45;;;;;;;13.57;10.52;;;16.80;68.40;;;;;;5054428;28;20029;-80
2022/03/24 09:53:12;;;;;;;18.13;10.52;;;17.00;69.50;;;;;;5053165;28;20120;-78
2022/03/24 09:55:38;;;;;;;14.13;11.15;;;17.50;66.80;;;;;;5055182;28;20112;-81
2022/03/24 09:58:07;;;;;;;14.18;11.18;;;17.60;67.40;;;;;;5054581;28;20060;-80
2022/03/24 10:00:35;;;;;;;13.02;10.07;;;17.60;64.10;;;;;;5040592;28;20367;-79
2022/03/24 10:03:15;;;;;;;12.63;10.70;;;17.80;63.30;;;;;;5031113;28;20039;-81
2022/03/24 10:06:00;;;;;;;15.30;11.05;;;18.80;60.40;;;;;;5047249;28;20037;-80
2022/03/24 10:08:28;;;;;;;15.07;11.57;;;18.80;60.70;;;;;;5051654;28;20452;-79
2022/03/24 10:11:02;;;;;;;16.63;12.48;;;18.50;60.80;;;;;;5054016;28;20095;-78
2022/03/24 10:13:44;;;;;;;18.58;11.80;;;18.40;61.90;;;;;;5053617;28;20040;-80
2022/03/24 10:16:12;;;;;;;28.05;12.80;;;18.10;64.00;;;;;;5055016;28;20025;-78
2022/03/24 10:18:55;;;;;;;16.38;12.20;;;18.00;62.60;;;;;;5054380;28;20100;-78
2022/03/24 10:21:23;;;;;;;13.95;11.27;;;18.20;62.40;;;;;;5051402;28;20032;-82
2022/03/24 10:23:49;;;;;;;17.38;11.40;;;18.80;58.70;;;;;;5051819;28;20041;-81
2022/03/24 10:26:14;;;;;;;15.95;11.52;;;19.00;60.80;;;;;;5053882;28;20028;-81
2022/03/24 10:28:57;;;;;;;14.73;11.48;;;19.50;58.60;;;;;;5053479;28;20104;-81
2022/03/24 10:31:33;;;;;;;15.27;12.25;;;20.50;55.10;;;;;;5053036;28;20032;-80
2022/03/24 10:33:59;;;;;;;15.88;12.15;;;20.10;55.40;;;;;;5054544;28;20045;-81
2022/03/24 10:36:26;;;;;;;14.00;10.95;;;20.90;53.30;;;;;;5055118;28;20114;-82
2022/03/24 10:38:56;;;;;;;12.85;11.45;;;20.60;54.20;;;;;;5053390;28;20021;-79
2022/03/24 10:41:34;;;;;;;12.18;9.77;;;20.20;54.00;;;;;;5053847;28;20036;-79
2022/03/24 10:44:06;;;;;;;15.55;9.57;;;20.80;50.90;;;;;;5047379;28;20194;-77
2022/03/24 10:46:34;;;;;;;15.38;10.95;;;20.90;48.20;;;;;;5051358;28;20166;-80
2022/03/24 10:49:20;;;;;;;15.20;11.40;;;20.20;48.40;;;;;;5064028;28;20028;-79
2022/03/24 10:51:48;;;;;;;14.15;10.50;;;20.00;52.10;;;;;;5063165;28;20357;-78
2022/03/24 10:54:35;;;;;;;12.75;9.55;;;20.00;50.40;;;;;;5051843;28;20029;-80
2022/03/24 10:57:03;;;;;;;12.02;8.32;;;19.90;49.60;;;;;;5054430;28;20100;-81
2022/03/24 10:59:33;;;;;;;15.30;9.10;;;20.20;48.20;;;;;;5052581;28;20143;-81
2022/03/24 11:01:59;;;;;;;12.45;10.63;;;20.60;48.80;;;;;;5053081;28;20025;-81
2022/03/24 11:04:25;;;;;;;15.88;11.25;;;21.00;49.30;;;;;;5053319;28;20484;-79
2022/03/24 11:06:52;;;;;;;16.60;11.32;;;20.80;48.60;;;;;;5054219;28;20021;-79
2022/03/24 11:09:22;;;;;;;14.10;9.73;;;20.60;51.20;;;;;;5053869;28;20025;-79
2022/03/24 11:11:47;;;;;;;11.85;9.27;;;20.70;48.80;;;;;;5053949;28;20381;-79
2022/03/24 11:14:13;;;;;;;13.05;10.10;;;20.80;47.00;;;;;;5052971;28;20033;-79
2022/03/24 11:16:40;;;;;;;11.52;9.32;;;21.20;48.00;;;;;;5053562;28;20100;-79
2022/03/24 11:19:15;;;;;;;11.23;9.35;;;21.20;47.20;;;;;;5053982;28;20100;-79
2022/03/24 11:21:57;;;;;;;12.68;9.82;;;21.40;46.70;;;;;;5052021;28;20508;-71
2022/03/24 11:24:23;;;;;;;9.68;8.45;;;21.30;46.80;;;;;;5067932;28;20044;-71
2022/03/24 11:26:49;;;;;;;10.63;7.25;;;21.80;44.50;;;;;;5070177;28;20032;-70
2022/03/24 11:29:15;;;;;;;10.75;7.63;;;21.60;44.40;;;;;;5070760;28;20433;-69
2022/03/24 11:31:45;;;;;;;9.43;7.95;;;21.40;45.10;;;;;;5073120;28;20095;-78
2022/03/24 11:34:11;;;;;;;11.50;9.00;;;21.00;44.30;;;;;;5033241;28;20029;-78
2022/03/24 11:36:37;;;;;;;9.63;8.02;;;20.60;44.30;;;;;;5032802;28;20025;-78
2022/03/24 11:39:05;;;;;;;8.90;7.85;;;21.20;43.50;;;;;;5033203;28;20478;-78
2022/03/24 11:41:41;;;;;;;11.50;8.75;;;22.00;42.50;;;;;;5043681;28;20028;-78
2022/03/24 11:44:36;;;;;;;14.65;8.55;;;21.70;40.90;;;;;;5053592;28;20029;-79
2022/03/24 11:47:15;;;;;;;13.15;8.52;;;21.20;41.20;;;;;;5053124;28;20057;-78
2022/03/24 11:49:40;;;;;;;11.60;9.52;;;21.80;43.40;;;;;;5053176;28;20035;-78
2022/03/24 11:52:06;;;;;;;12.85;9.45;;;22.30;41.80;;;;;;5051743;28;20112;-78
2022/03/24 11:54:35;;;;;;;12.73;9.23;;;22.50;41.60;;;;;;5053307;28;20029;-78
2022/03/24 11:57:28;;;;;;;12.90;9.15;;;22.00;43.90;;;;;;5053724;28;20488;-82
2022/03/24 12:00:12;;;;;;;11.23;8.50;;;22.10;42.30;;;;;;5035968;28;20382;-82
2022/03/24 12:02:38;;;;;;;11.13;9.23;;;21.80;43.80;;;;;;5033555;28;20108;-82
2022/03/24 12:05:04;;;;;;;10.95;9.80;;;22.20;42.10;;;;;;5035469;28;20084;-81
2022/03/24 12:07:30;;;;;;;11.05;9.13;;;22.20;43.20;;;;;;5050319;28;20036;-82
2022/03/24 12:10:03;;;;;;;12.98;10.02;;;22.40;42.10;;;;;;5051596;28;20032;-82
2022/03/24 12:12:30;;;;;;;14.77;10.43;;;22.50;41.40;;;;;;5051525;28;20385;-83
2022/03/24 12:14:58;;;;;;;12.57;9.43;;;22.50;42.50;;;;;;5052975;28;20037;-83
2022/03/24 12:17:31;;;;;;;11.10;9.05;;;22.10;43.10;;;;;;5051872;28;20032;-81
2022/03/24 12:20:03;;;;;;;10.95;9.65;;;22.40;42.60;;;;;;5051529;28;20025;-83
2022/03/24 12:22:32;;;;;;;11.55;9.57;;;22.50;41.00;;;;;;5051694;28;20029;-82
2022/03/24 12:25:00;;;;;;;11.93;9.68;;;22.40;41.40;;;;;;5051450;28;20424;-82
2022/03/24 12:27:32;;;;;;;12.52;9.63;;;22.50;41.70;;;;;;5054091;28;20017;-82
2022/03/24 12:30:15;;;;;;;11.27;8.32;;;22.30;42.40;;;;;;5047066;28;20076;-70
2022/03/24 12:32:42;;;;;;;11.25;9.05;;;23.00;39.90;;;;;;5046926;28;20083;-70
2022/03/24 12:35:09;;;;;;;15.40;9.20;;;22.90;38.90;;;;;;5045706;28;20025;-75
2022/03/24 12:37:35;;;;;;;14.40;9.25;;;22.70;40.10;;;;;;5047083;28;20045;-71